• Join FlightAware (Why Join?)
  • Login
  • US Flag 
02:07PM EST


 

Airport Tracker/Info


-or-


 

Live Flight TrackerFlight Track Log ✈ UAL3773 ✈ 20-Apr-2013 ✈ KORD - KPVD

Flight Track Log - Related Links

Times and Time Zones

All times are in EDT time to prevent confusion due to time zone crossing. See the UAL3773 flight status page for this flight to view local times or setup timezone preferences in your user account.

Time Position Orientation Groundspeed Altitude Reporting Facility
EDT Latitude Longitude Course Direction KTS MPH feet Rate Location/Type
02:16PM 42.0000 -87.9500 90° East 176 203 2,100  Level Chicago TRACON
02:17PM 42.0333 -87.9000 48° Northeast 227 261 4,700 2,340 Climbing Chicago TRACON
02:18PM 42.0500 -87.8333 71° East 247 284 6,600 2,160 Climbing Chicago TRACON
02:19PM 42.0756 -87.2002 78° East  Level FlightAware Approximate
02:20PM 42.1016 -87.0236 77° East  Level FlightAware Approximate
02:20PM 42.0606 -87.5883 87° East 305 351 11,700  Level Chicago Center
02:21PM 42.1168 -86.8453 90° East  Level FlightAware Approximate
02:21PM 42.0719 -87.4689 83° East 319 367 14,200  Level Chicago Center
02:22PM 42.0847 -87.3397 82° East 343 395 15,600 1,080 Climbing Chicago Center
02:23PM 42.0997 -87.1939 82° East 386 444 16,500 960 Climbing Chicago Center
02:24PM 42.1150 -86.9986 84° East 435 501 17,600 840 Climbing Chicago Center
02:25PM 42.1206 -86.8272 87° East 455 524 18,300 720 Climbing Chicago Center
02:26PM 42.1264 -86.6689 87° East 473 544 19,100 960 Climbing Chicago Center
02:27PM 42.1339 -86.4453 87° East 494 568 20,400 1,140 Climbing Chicago Center
02:28PM 42.1408 -86.2556 87° East 504 580 21,500 1,080 Climbing Chicago Center
02:29PM 42.1444 -86.0639 88° East 510 587 22,700 1,020 Climbing Chicago Center
02:30PM 42.1428 -85.8856 91° East 515 593 23,700 1,080 Climbing Chicago Center
02:31PM 42.1408 -85.6542 91° East 518 596 25,000 1,140 Climbing Chicago Center
02:32PM 42.1392 -85.4597 91° East 522 601 26,100 1,260 Climbing Chicago Center
02:33PM 42.1372 -85.2667 91° East 518 596 27,700 1,500 Climbing Chicago Center
02:33PM 42.1400 -85.2042 87° East 518 596 28,100 1,380 Climbing Cleveland Center
02:34PM 42.1372 -85.0136 91° East 512 589 29,500 1,080 Climbing Cleveland Center
02:35PM 42.1319 -84.8200 92° East 512 589 30,300 660 Climbing Cleveland Center
02:36PM 42.1311 -84.6686 90° East 512 589 30,900 780 Climbing Cleveland Center
02:37PM 42.1328 -84.4361 89° East 518 596 31,900 840 Climbing Cleveland Center
02:38PM 42.1453 -84.2464 85° East 513 590 32,600 540 Climbing Cleveland Center
02:39PM 42.1681 -84.0544 81° East 518 596 33,000 180 Climbing Cleveland Center
02:40PM 42.1881 -83.8706 82° East 527 606 33,000  Level Cleveland Center
02:41PM 42.2103 -83.6669 82° East 538 619 33,000  Level Cleveland Center
02:42PM 42.2267 -83.4378 84° East 550 633 33,000  Level Cleveland Center
02:43PM 42.2317 -83.2306 88° East 555 639 33,000  Level Cleveland Center
02:44PM 42.2317 -83.0397 90° East 555 639 33,000  Level Cleveland Center
02:45PM 42.2319 -82.8294 90° East 555 639 33,000  Level Cleveland Center
02:46PM 42.2336 -82.6219 89° East 555 639 33,000  Level Cleveland Center
02:47PM 42.2350 -82.4144 89° East 549 632 33,000  Level Cleveland Center
02:48PM 42.2319 -82.2069 91° East 549 632 33,000  Level Cleveland Center
02:49PM 42.2347 -81.9994 89° East 549 632 33,000  Level Cleveland Center
02:50PM 42.2350 -81.7919 90° East 549 632 33,000  Level Cleveland Center
02:51PM 42.2308 -81.5647 91° East 554 638 33,000  Level Cleveland Center
02:52PM 42.2303 -81.3600 90° East 549 632 33,000  Level Cleveland Center
02:53PM 42.2275 -81.1525 91° East 549 632 33,000  Level Cleveland Center
02:54PM 42.2303 -80.9422 89° East 549 632 33,000  Level Cleveland Center
02:55PM 42.2475 -80.7347 84° East 554 638 33,000  Level Cleveland Center
02:56PM 42.2642 -80.5328 84° East 554 638 33,000  Level Cleveland Center
02:57PM 42.2806 -80.3278 84° East 554 638 33,000  Level Cleveland Center
02:58PM 42.2967 -80.1200 84° East 559 643 33,000  Level Cleveland Center
02:59PM 42.3103 -79.9206 85° East 547 629 33,000  Level Cleveland Center
03:00PM 42.3278 -79.7181 83° East 542 624 33,000  Level Cleveland Center
03:01PM 42.3428 -79.5128 84° East 542 624 33,000  Level Cleveland Center
03:02PM 42.3553 -79.3133 85° East 542 624 33,000  Level Cleveland Center
03:03PM 42.3694 -79.1078 85° East 542 624 33,000  Level Cleveland Center
03:04PM 42.3756 -78.9447 87° East 542 624 33,000  Level Cleveland Center
03:05PM 42.3931 -78.7164 84° East 542 624 33,000  Level Cleveland Center
03:06PM 42.4083 -78.5078 84° East 548 631 33,000  Level Cleveland Center
03:07PM 42.4189 -78.3022 86° East 548 631 33,000  Level Cleveland Center
03:08PM 42.4314 -78.0964 85° East 548 631 33,000  Level Cleveland Center
03:09PM 42.4411 -77.8878 86° East 553 636 33,000  Level Cleveland Center
03:10PM 42.4525 -77.6619 86° East 553 636 33,000  Level Cleveland Center
03:13PM 42.4803 -77.1422 86° East 570 656 33,000  Level Boston Center
03:14PM 42.4906 -76.9347 86° East 557 641 33,000  Level Boston Center
03:15PM 42.4989 -76.7239 87° East 552 635 33,000  Level Boston Center
03:16PM 42.5108 -76.5133 86° East 552 635 33,000 -300 Level Boston Center
03:17PM 42.4994 -76.3042 94° East 547 629 32,500 -780 Descending Boston Center
03:18PM 42.4461 -76.1517 115° Southeast 507 583 31,500 -840 Descending Boston Center
03:19PM 42.3786 -75.9817 118° Southeast 499 574 30,900 -300 Descending Boston Center
03:20PM 42.3678 -75.7817 94° East 514 592 31,000  Climbing Boston Center
03:21PM 42.3633 -75.5733 92° East 535 616 31,000 -120 Level Boston Center
03:22PM 42.3583 -75.3708 92° East 541 623 30,800 -660 Descending Boston Center
03:23PM 42.3511 -75.1625 93° East 547 629 29,700 -900 Descending Boston Center
03:24PM 42.3453 -74.9628 92° East 547 629 29,000 -360 Descending Boston Center
03:25PM 42.3392 -74.7631 92° East 535 616 29,000  Level Boston Center
03:26PM 42.3306 -74.5661 93° East 535 616 29,000  Level Boston Center
03:27PM 42.3258 -74.3636 92° East 535 616 29,000 -60 Level Boston Center
03:28PM 42.3164 -74.1614 94° East 535 616 28,900 -360 Descending Boston Center
03:29PM 42.3069 -73.9561 93° East 535 616 28,300 -720 Descending Boston Center
03:30PM 42.2989 -73.7539 93° East 535 616 27,500 -1,320 Descending Boston Center
03:31PM 42.2911 -73.5233 93° East 554 638 25,700 -1,500 Descending Boston Center
03:32PM 42.2842 -73.3661 93° East 549 632 24,500 -1,440 Descending Boston Center
03:33PM 42.2625 -73.1611 98° East 524 603 22,900 -1,800 Descending Boston Center
03:34PM 42.1864 -73.0200 126° Southeast 464 534 20,900 -1,920 Descending Boston Center
03:35PM 42.0869 -72.8933 137° Southeast 451 519 19,100 -960 Descending Boston Center
03:36PM 42.0039 -72.7781 134° Southeast 439 505 19,000 -60 Descending Boston Center
03:37PM 41.9231 -72.6550 131° Southeast 433 498 19,000  Level Boston Center
03:38PM 41.8564 -72.5378 127° Southeast 433 498 19,000 -600 Level Boston Center
03:39PM 41.7919 -72.4206 126° Southeast 436 502 17,900 -2,100 Descending Boston Center
03:39PM 41.7500 -72.3511 129° Southeast 438 504 16,200 -3,480 Descending Boston Center
03:40PM 41.7083 -72.2650 123° Southeast 443 510 14,000 -3,600 Descending Boston Center
03:40PM 41.6853 -72.2317 133° Southeast 430 495 12,900 -2,820 Descending Boston Center
03:41PM 41.6456 -72.1567 125° Southeast 423 487 11,200 -1,920 Descending Boston Center
03:41PM 41.6183 -72.1125 129° Southeast 411 473 11,000 -240 Descending Boston Center
03:42PM 41.5722 -72.0267 126° Southeast 401 461 11,000 -300 Level Boston Center
03:42PM 41.5556 -71.9989 129° Southeast 382 440 10,700 -900 Descending Boston Center
03:43PM 41.5303 -71.9217 114° Southeast 380 437 10,100 -900 Descending Boston Center
03:43PM 41.5111 -71.8664 115° Southeast 322 371 9,700 -1,020 Descending Boston Center
03:44PM 41.5067 -71.7997 95° East 306 352 9,100 -1,140 Descending Boston Center
03:44PM 41.5314 -71.7578 52° Northeast 325 374 8,600 -1,020 Descending Boston Center
03:45PM 41.5706 -71.7131 40° Northeast 286 329 8,100 -1,140 Descending Boston Center
03:45PM 41.5975 -71.6794 43° Northeast 316 364 7,500 -1,200 Descending Boston Center
03:46PM 41.6639 -71.6147 36° Northeast 291 335 6,400 -1,200 Descending Boston Center
03:47PM 41.7011 -71.5836 32° Northeast 289 333 5,700 -1,200 Descending Boston Center
03:47PM 41.7322 -71.5583 31° Northeast 268 308 5,200 -720 Descending Boston Center
03:48PM 41.7550 -71.5356 37° Northeast 267 307 5,000 -720 Descending Boston Center
03:48PM 41.7858 -71.5103 31° Northeast 229 264 4,500 -1,620 Descending Boston Center
03:49PM 41.8108 -71.4847 37° Northeast 228 262 3,400 -2,100 Descending Boston Center